createdAt,value
2022-10-19T00:01:17.356Z,3.92
2022-10-19T00:06:19.716Z,4.63
2022-10-19T00:08:48.196Z,4.87
2022-10-19T00:11:18.308Z,4.78
2022-10-19T00:13:46.781Z,5.15
2022-10-19T00:16:17.140Z,4.63
2022-10-19T00:18:45.696Z,4.80
2022-10-19T00:21:17.461Z,5.25
2022-10-19T00:23:46.907Z,5.40
2022-10-19T00:26:15.356Z,5.40
2022-10-19T00:28:45.536Z,5.88
2022-10-19T00:31:15.461Z,5.05
2022-10-19T00:33:44.480Z,5.00
2022-10-19T00:36:17.225Z,4.97
2022-10-19T00:38:46.033Z,5.45
2022-10-19T00:41:14.780Z,5.72
2022-10-19T00:43:56.225Z,4.90
2022-10-19T00:46:24.762Z,4.75
2022-10-19T00:48:55.796Z,4.80
2022-10-19T00:51:24.339Z,5.13
2022-10-19T00:53:55.542Z,5.20
2022-10-19T00:56:23.866Z,5.03
2022-10-19T00:58:52.212Z,6.07
2022-10-19T01:01:23.685Z,5.53
2022-10-19T01:03:52.282Z,6.22
2022-10-19T01:06:22.091Z,7.47
2022-10-19T01:08:50.440Z,7.78
2022-10-19T01:11:30.867Z,8.75
2022-10-19T01:14:09.241Z,8.60
2022-10-19T01:16:48.003Z,9.35
2022-10-19T01:19:34.406Z,10.55
2022-10-19T01:22:12.302Z,10.07
2022-10-19T01:27:31.266Z,11.43
2022-10-19T01:30:04.832Z,11.90
2022-10-19T01:32:40.027Z,13.10
2022-10-19T01:35:12.463Z,12.38
2022-10-19T01:37:45.918Z,13.35
2022-10-19T01:40:18.880Z,15.07
2022-10-19T01:42:50.434Z,14.35
2022-10-19T01:45:22.753Z,14.48
2022-10-19T01:47:55.591Z,14.70
2022-10-19T01:50:28.258Z,13.80
2022-10-19T01:52:57.155Z,14.57
2022-10-19T01:55:26.629Z,13.38
2022-10-19T01:57:58.570Z,13.52
2022-10-19T02:00:28.969Z,12.95
2022-10-19T02:02:57.673Z,13.00
2022-10-19T02:05:30.509Z,13.23
2022-10-19T02:08:00.778Z,11.50
2022-10-19T02:10:29.966Z,12.18
2022-10-19T02:12:59.773Z,12.35
2022-10-19T02:15:30.949Z,12.57
2022-10-19T02:18:00.430Z,12.25
2022-10-19T02:20:37.473Z,13.95
2022-10-19T02:23:06.466Z,12.68
2022-10-19T02:25:35.595Z,14.45
2022-10-19T02:28:05.067Z,13.85
2022-10-19T02:30:35.228Z,14.20
2022-10-19T02:33:03.345Z,13.40
2022-10-19T02:35:32.244Z,14.48
2022-10-19T02:38:02.322Z,14.18
2022-10-19T02:40:31.334Z,14.32
2022-10-19T02:43:02.977Z,14.65
2022-10-19T02:45:35.291Z,14.23
2022-10-19T02:48:05.575Z,14.27
2022-10-19T02:50:34.163Z,13.40
2022-10-19T02:53:02.624Z,13.73
2022-10-19T02:55:31.569Z,14.30
2022-10-19T02:57:59.917Z,13.73
2022-10-19T03:00:28.285Z,14.07
2022-10-19T03:02:58.000Z,13.55
2022-10-19T03:05:26.480Z,13.52
2022-10-19T03:07:54.960Z,14.45
2022-10-19T03:10:23.452Z,13.63
2022-10-19T03:12:51.665Z,13.85
2022-10-19T03:15:20.445Z,14.27
2022-10-19T03:17:48.635Z,14.73
2022-10-19T03:20:18.682Z,14.23
2022-10-19T03:22:46.940Z,13.80
2022-10-19T03:25:15.350Z,13.45
2022-10-19T03:27:43.607Z,13.05
2022-10-19T03:30:12.584Z,12.88
2022-10-19T03:32:40.811Z,13.32
2022-10-19T03:35:09.466Z,13.70
2022-10-19T03:37:39.071Z,13.38
2022-10-19T03:40:08.225Z,14.15
2022-10-19T03:42:36.398Z,12.35
2022-10-19T03:45:05.674Z,10.82
2022-10-19T03:47:34.032Z,9.27
2022-10-19T03:50:02.541Z,9.75
2022-10-19T03:52:30.753Z,8.52
2022-10-19T03:55:00.636Z,10.00
2022-10-19T03:57:28.903Z,11.07
2022-10-19T03:59:57.275Z,11.15
2022-10-19T04:02:25.657Z,12.15
2022-10-19T04:04:54.153Z,11.02
2022-10-19T04:07:22.393Z,10.15
2022-10-19T04:09:50.763Z,9.15
2022-10-19T04:12:20.290Z,9.60
2022-10-19T04:14:58.138Z,9.55
2022-10-19T04:17:26.813Z,11.40
2022-10-19T04:19:55.224Z,10.23
2022-10-19T04:22:23.359Z,11.63
2022-10-19T04:24:51.713Z,10.68
2022-10-19T04:27:21.246Z,11.30
2022-10-19T04:29:49.643Z,10.63
2022-10-19T04:32:17.800Z,11.40
2022-10-19T04:34:46.207Z,11.07
2022-10-19T04:37:14.379Z,10.23
2022-10-19T04:39:43.891Z,10.65
2022-10-19T04:42:12.125Z,10.25
2022-10-19T04:44:41.814Z,10.05
2022-10-19T04:47:09.945Z,10.68
2022-10-19T04:49:38.401Z,10.38
2022-10-19T04:52:06.871Z,11.30
2022-10-19T04:54:35.321Z,9.90
2022-10-19T04:57:03.396Z,11.15
2022-10-19T04:59:31.634Z,12.93
2022-10-19T05:02:01.217Z,12.82
2022-10-19T05:04:29.524Z,11.95
2022-10-19T05:06:57.802Z,10.82
2022-10-19T05:09:26.493Z,11.98
2022-10-19T05:11:54.657Z,11.40
2022-10-19T05:14:23.229Z,11.15
2022-10-19T05:16:51.469Z,11.30
2022-10-19T05:19:21.382Z,11.45
2022-10-19T05:21:50.202Z,11.02
2022-10-19T05:24:19.027Z,10.70
2022-10-19T05:26:47.333Z,10.68
2022-10-19T05:29:15.755Z,10.50
2022-10-19T05:31:44.019Z,9.88
2022-10-19T05:34:15.153Z,12.13
2022-10-19T05:36:45.227Z,10.65
2022-10-19T05:39:15.746Z,10.55
2022-10-19T05:41:44.621Z,10.13
2022-10-19T05:44:15.767Z,11.38
2022-10-19T05:46:45.557Z,11.70
2022-10-19T05:49:15.581Z,10.30
2022-10-19T05:51:45.350Z,9.68
2022-10-19T05:54:15.087Z,9.60
2022-10-19T05:56:43.755Z,11.63
2022-10-19T05:59:15.816Z,8.55
2022-10-19T06:01:44.035Z,9.38
2022-10-19T06:04:14.294Z,10.35
2022-10-19T06:06:43.562Z,10.68
2022-10-19T06:09:13.526Z,9.32
2022-10-19T06:11:42.831Z,8.80
2022-10-19T06:14:14.527Z,9.82
2022-10-19T06:16:42.961Z,10.88
2022-10-19T06:19:11.284Z,9.05
2022-10-19T06:21:41.956Z,9.38
2022-10-19T06:24:14.737Z,9.23
2022-10-19T06:26:42.886Z,9.45
2022-10-19T06:29:11.217Z,9.10
2022-10-19T06:31:39.588Z,9.45
2022-10-19T06:34:08.170Z,9.75
2022-10-19T06:36:36.872Z,11.88
2022-10-19T06:39:05.744Z,11.77
2022-10-19T06:41:35.440Z,11.52
2022-10-19T06:44:03.962Z,13.95
2022-10-19T06:46:32.653Z,14.10
2022-10-19T06:49:02.669Z,14.38
2022-10-19T06:51:34.049Z,15.85
2022-10-19T06:54:02.490Z,14.60
2022-10-19T06:56:30.645Z,14.27
2022-10-19T06:59:00.456Z,15.40
2022-10-19T07:01:28.827Z,16.13
2022-10-19T07:03:57.320Z,14.55
2022-10-19T07:06:27.648Z,14.02
2022-10-19T07:08:55.980Z,13.83
2022-10-19T07:11:24.157Z,12.65
2022-10-19T07:13:53.985Z,12.77
2022-10-19T07:16:23.552Z,14.45
2022-10-19T07:18:53.253Z,13.32
2022-10-19T07:21:22.459Z,15.73
2022-10-19T07:23:51.326Z,12.82
2022-10-19T07:26:23.567Z,12.75
2022-10-19T07:28:52.333Z,13.10
2022-10-19T07:31:24.531Z,13.23
2022-10-19T07:33:54.592Z,11.23
2022-10-19T07:36:23.426Z,11.27
2022-10-19T07:38:52.040Z,11.75
2022-10-19T07:41:22.362Z,10.05
2022-10-19T07:43:51.275Z,9.37
2022-10-19T07:46:20.747Z,8.85
2022-10-19T07:48:50.481Z,8.40
2022-10-19T07:51:19.516Z,8.35
2022-10-19T07:53:48.265Z,8.32
2022-10-19T07:56:18.140Z,7.78
2022-10-19T07:58:47.071Z,8.98
2022-10-19T08:01:16.864Z,9.00
2022-10-19T08:06:36.651Z,7.40
2022-10-19T08:09:05.460Z,6.40
2022-10-19T08:11:35.668Z,6.15
2022-10-19T08:14:04.689Z,6.45
2022-10-19T08:16:36.693Z,5.25
2022-10-19T08:19:07.191Z,5.78
2022-10-19T08:21:37.700Z,5.70
2022-10-19T08:24:06.846Z,4.85
2022-10-19T08:26:36.701Z,5.82
2022-10-19T08:29:06.598Z,5.38
2022-10-19T08:31:34.989Z,4.78
2022-10-19T08:34:03.395Z,4.53
2022-10-19T08:36:32.781Z,5.03
2022-10-19T08:39:03.205Z,4.18
2022-10-19T08:41:34.794Z,4.78
2022-10-19T08:44:20.359Z,4.13
2022-10-19T08:46:53.752Z,3.95
2022-10-19T08:49:25.488Z,2.85
2022-10-19T08:54:28.641Z,3.80
2022-10-19T08:57:06.067Z,2.95
2022-10-19T08:59:40.441Z,2.83
2022-10-19T09:02:15.511Z,3.42
2022-10-19T09:04:47.017Z,3.90
2022-10-19T09:07:26.082Z,4.00
2022-10-19T09:09:58.808Z,3.65
2022-10-19T09:12:34.985Z,3.72
2022-10-19T09:15:06.006Z,4.30
2022-10-19T09:17:34.308Z,3.90
2022-10-19T09:20:15.729Z,3.30
2022-10-19T09:22:44.896Z,5.40
2022-10-19T09:25:19.953Z,4.00
2022-10-19T09:27:50.242Z,5.60
2022-10-19T09:30:21.199Z,4.82
2022-10-19T09:32:50.469Z,3.60
2022-10-19T09:35:24.247Z,2.47
2022-10-19T09:37:52.966Z,2.45
2022-10-19T09:40:25.951Z,2.65
2022-10-19T09:42:58.527Z,1.90
2022-10-19T09:45:35.314Z,2.35
2022-10-19T09:48:12.194Z,1.98
2022-10-19T09:50:44.985Z,1.95
2022-10-19T09:53:19.183Z,1.85
2022-10-19T09:55:58.511Z,2.20
2022-10-19T09:58:32.075Z,2.53
2022-10-19T10:01:03.110Z,2.50
2022-10-19T10:03:33.275Z,2.20
2022-10-19T10:06:04.586Z,2.40
2022-10-19T10:08:34.932Z,3.00
2022-10-19T10:11:10.251Z,2.60
2022-10-19T10:13:40.183Z,2.88
2022-10-19T10:16:10.458Z,2.70
2022-10-19T10:18:45.676Z,2.55
2022-10-19T10:21:17.072Z,2.45
2022-10-19T10:24:00.548Z,2.25
2022-10-19T10:26:30.398Z,2.75
2022-10-19T10:29:01.354Z,2.20
2022-10-19T10:31:31.180Z,1.95
2022-10-19T10:34:10.922Z,2.88
2022-10-19T10:36:52.579Z,3.13
2022-10-19T10:39:20.789Z,3.08
2022-10-19T10:41:50.540Z,3.13
2022-10-19T10:44:20.962Z,3.17
2022-10-19T10:46:53.278Z,2.90
2022-10-19T10:49:26.193Z,2.97
2022-10-19T10:51:56.547Z,2.97
2022-10-19T10:54:26.841Z,3.15
2022-10-19T10:57:13.160Z,3.23
2022-10-19T10:59:48.342Z,3.10
2022-10-19T11:02:29.625Z,2.67
2022-10-19T11:05:01.209Z,2.30
2022-10-19T11:07:30.145Z,2.33
2022-10-19T11:10:00.436Z,2.35
2022-10-19T11:12:35.765Z,2.42
2022-10-19T11:15:12.443Z,2.20
2022-10-19T11:17:54.866Z,2.63
2022-10-19T11:20:24.282Z,2.45
2022-10-19T11:22:59.486Z,2.53
2022-10-19T11:25:37.515Z,2.80
2022-10-19T11:28:16.669Z,2.30
2022-10-19T11:30:55.597Z,2.13
2022-10-19T11:33:36.205Z,1.70
2022-10-19T11:36:12.909Z,2.00
2022-10-19T11:38:51.804Z,2.08
2022-10-19T11:41:28.508Z,1.98
2022-10-19T11:44:10.574Z,2.42
2022-10-19T11:46:42.831Z,2.10
2022-10-19T11:49:22.820Z,3.28
2022-10-19T11:51:57.544Z,2.75
2022-10-19T11:54:35.510Z,3.17
2022-10-19T11:57:11.354Z,2.20
2022-10-19T11:59:52.567Z,3.00
2022-10-19T12:02:39.267Z,3.47
2022-10-19T12:05:11.468Z,3.88
2022-10-19T12:07:56.663Z,4.28
2022-10-19T12:10:30.454Z,2.50
2022-10-19T12:13:02.357Z,2.33
2022-10-19T12:15:35.320Z,2.53
2022-10-19T12:18:10.198Z,2.45
2022-10-19T12:20:41.305Z,3.88
2022-10-19T12:23:23.126Z,4.13
2022-10-19T12:25:52.406Z,2.65
2022-10-19T12:28:23.729Z,5.00
2022-10-19T12:33:24.934Z,3.17
2022-10-19T12:36:02.190Z,2.58
2022-10-19T12:38:42.281Z,2.30
2022-10-19T12:41:21.462Z,2.63
2022-10-19T12:44:01.899Z,2.60
2022-10-19T12:46:37.324Z,2.07
2022-10-19T12:49:38.564Z,2.28
2022-10-19T12:52:08.330Z,2.67
2022-10-19T12:54:39.482Z,3.83
2022-10-19T13:00:00.637Z,2.08
2022-10-19T13:05:01.501Z,3.13
2022-10-19T13:07:37.286Z,2.83
2022-10-19T13:10:07.389Z,2.28
2022-10-19T13:12:44.827Z,3.90
2022-10-19T13:15:49.521Z,2.95
2022-10-19T13:19:02.729Z,2.00
2022-10-19T13:21:54.087Z,2.38
2022-10-19T13:24:34.701Z,2.08
2022-10-19T13:27:27.363Z,2.40
2022-10-19T13:29:55.781Z,2.70
2022-10-19T13:32:48.035Z,2.33
2022-10-19T13:35:31.628Z,1.92
2022-10-19T13:38:24.320Z,2.30
2022-10-19T13:41:08.041Z,2.40
2022-10-19T13:43:40.327Z,2.55
2022-10-19T13:46:14.933Z,2.38
2022-10-19T13:49:04.858Z,2.97
2022-10-19T13:51:38.779Z,3.10
2022-10-19T13:54:17.782Z,5.30
2022-10-19T13:56:57.350Z,4.80
2022-10-19T13:59:57.562Z,3.50
2022-10-19T14:02:55.176Z,2.58
2022-10-19T14:08:22.733Z,2.15
2022-10-19T14:11:01.098Z,2.05
2022-10-19T14:13:30.545Z,2.58
2022-10-19T14:16:00.658Z,2.30
2022-10-19T14:18:31.271Z,2.00
2022-10-19T14:21:00.833Z,2.35
2022-10-19T14:23:31.848Z,1.90
2022-10-19T14:26:01.383Z,2.47
2022-10-19T14:28:29.897Z,2.53
2022-10-19T14:30:59.983Z,9.68
2022-10-19T14:33:28.763Z,1.90
2022-10-19T14:35:57.423Z,1.60
2022-10-19T14:38:32.862Z,1.67
2022-10-19T14:41:01.169Z,1.95
2022-10-19T14:43:30.936Z,2.20
2022-10-19T14:46:14.604Z,4.13
2022-10-19T14:48:45.564Z,3.58
2022-10-19T14:51:28.057Z,10.10
2022-10-19T14:54:00.637Z,10.00
2022-10-19T14:56:34.854Z,5.95
2022-10-19T14:59:06.205Z,2.92
2022-10-19T15:01:35.026Z,4.07
2022-10-19T15:04:03.788Z,2.72
2022-10-19T15:06:35.727Z,2.72
2022-10-19T15:09:12.101Z,2.10
2022-10-19T15:11:49.858Z,2.45
2022-10-19T15:14:22.037Z,2.45
2022-10-19T15:16:53.362Z,2.78
2022-10-19T15:19:27.786Z,2.65
2022-10-19T15:22:13.180Z,3.03
2022-10-19T15:24:57.160Z,2.97
2022-10-19T15:27:31.259Z,2.50
2022-10-19T15:30:05.660Z,2.40
2022-10-19T15:32:36.606Z,2.47
2022-10-19T15:35:12.996Z,2.95
2022-10-19T15:37:43.656Z,4.35
2022-10-19T15:40:18.431Z,4.63
2022-10-19T15:42:48.800Z,3.95
2022-10-19T15:45:35.598Z,4.07
2022-10-19T15:48:20.299Z,4.65
2022-10-19T15:50:49.622Z,3.80
2022-10-19T15:53:18.012Z,3.92
2022-10-19T15:55:48.057Z,4.35
2022-10-19T15:58:16.483Z,5.05
2022-10-19T16:00:45.468Z,4.82
2022-10-19T16:03:14.079Z,4.60
2022-10-19T16:05:42.380Z,4.70
2022-10-19T16:08:12.477Z,5.32
2022-10-19T16:10:40.979Z,5.20
2022-10-19T16:13:10.445Z,4.88
2022-10-19T16:15:38.766Z,5.03
2022-10-19T16:18:06.872Z,4.32
2022-10-19T16:20:35.259Z,4.55
2022-10-19T16:23:03.656Z,3.95
2022-10-19T16:25:31.995Z,4.25
2022-10-19T16:28:03.148Z,3.67
2022-10-19T16:30:32.859Z,3.63
2022-10-19T16:33:01.098Z,4.30
2022-10-19T16:35:29.330Z,4.50
2022-10-19T16:37:59.170Z,4.43
2022-10-19T16:40:27.517Z,5.72
2022-10-19T16:42:58.853Z,5.82
2022-10-19T16:45:27.299Z,6.50
2022-10-19T16:47:56.856Z,6.78
2022-10-19T16:50:25.318Z,7.07
2022-10-19T16:53:04.935Z,9.75
2022-10-19T16:55:33.901Z,8.05
2022-10-19T16:58:01.984Z,9.00
2022-10-19T17:00:30.485Z,9.32
2022-10-19T17:03:00.113Z,7.82
2022-10-19T17:05:28.493Z,7.22
2022-10-19T17:07:56.627Z,7.13
2022-10-19T17:10:25.176Z,7.10
2022-10-19T17:12:53.420Z,6.65
2022-10-19T17:15:42.065Z,6.63
2022-10-19T17:18:11.457Z,6.63
2022-10-19T17:20:39.957Z,6.78
2022-10-19T17:23:08.072Z,6.43
2022-10-19T17:25:36.454Z,5.95
2022-10-19T17:28:04.645Z,6.40
2022-10-19T17:30:32.978Z,6.53
2022-10-19T17:33:01.027Z,8.15
2022-10-19T17:35:30.769Z,7.55
2022-10-19T17:37:59.064Z,7.95
2022-10-19T17:40:27.540Z,6.45
2022-10-19T17:42:55.686Z,7.28
2022-10-19T17:45:24.103Z,5.68
2022-10-19T17:47:52.191Z,7.90
2022-10-19T17:50:20.575Z,6.05
2022-10-19T17:52:50.076Z,6.47
2022-10-19T17:55:18.652Z,7.18
2022-10-19T17:57:46.921Z,5.32
2022-10-19T18:00:16.239Z,6.28
2022-10-19T18:02:45.910Z,5.65
2022-10-19T18:05:14.417Z,5.32
2022-10-19T18:07:44.782Z,5.50
2022-10-19T18:10:15.520Z,5.97
2022-10-19T18:12:43.592Z,4.70
2022-10-19T18:15:11.920Z,4.97
2022-10-19T18:17:40.325Z,5.18
2022-10-19T18:20:09.954Z,5.35
2022-10-19T18:22:38.413Z,5.10
2022-10-19T18:25:07.502Z,5.35
2022-10-19T18:27:37.590Z,4.90
2022-10-19T18:30:06.814Z,4.45
2022-10-19T18:32:36.205Z,5.40
2022-10-19T18:35:05.190Z,5.90
2022-10-19T18:37:33.302Z,4.53
2022-10-19T18:40:01.721Z,4.22
2022-10-19T18:42:30.633Z,5.50
2022-10-19T18:45:00.670Z,5.53
2022-10-19T18:47:28.793Z,4.32
2022-10-19T18:49:57.417Z,5.22
2022-10-19T18:52:25.587Z,4.55
2022-10-19T18:54:53.961Z,4.75
2022-10-19T18:57:22.194Z,4.95
2022-10-19T18:59:50.698Z,3.75
2022-10-19T19:02:22.700Z,2.78
2022-10-19T19:04:56.634Z,2.83
2022-10-19T19:07:24.870Z,2.90
2022-10-19T19:09:53.211Z,2.45
2022-10-19T19:12:22.615Z,2.38
2022-10-19T19:14:50.982Z,2.80
2022-10-19T19:17:20.452Z,2.58
2022-10-19T19:19:48.858Z,2.53
2022-10-19T19:22:18.044Z,2.53
2022-10-19T19:24:46.756Z,2.90
2022-10-19T19:27:15.000Z,3.90
2022-10-19T19:29:44.008Z,3.22
2022-10-19T19:32:12.119Z,3.30
2022-10-19T19:34:41.808Z,2.88
2022-10-19T19:37:11.237Z,2.97
2022-10-19T19:39:39.973Z,2.80
2022-10-19T19:42:08.778Z,2.55
2022-10-19T19:44:37.110Z,3.38
2022-10-19T19:47:05.907Z,3.10
2022-10-19T19:49:34.378Z,2.78
2022-10-19T19:52:03.950Z,2.70
2022-10-19T19:54:32.539Z,3.40
2022-10-19T19:57:00.674Z,2.80
2022-10-19T19:59:30.414Z,3.17
2022-10-19T20:01:58.579Z,3.58
2022-10-19T20:04:27.232Z,3.15
2022-10-19T20:06:55.321Z,4.10
2022-10-19T20:09:25.107Z,3.88
2022-10-19T20:11:53.275Z,4.50
2022-10-19T20:14:21.666Z,3.70
2022-10-19T20:16:49.783Z,4.00
2022-10-19T20:19:18.254Z,4.30
2022-10-19T20:21:46.279Z,5.00
2022-10-19T20:24:14.666Z,5.10
2022-10-19T20:26:44.120Z,4.65
2022-10-19T20:29:12.551Z,4.40
2022-10-19T20:31:41.390Z,4.45
2022-10-19T20:34:14.853Z,4.50
2022-10-19T20:36:43.183Z,4.68
2022-10-19T20:39:11.874Z,4.78
2022-10-19T20:41:39.947Z,4.90
2022-10-19T20:44:09.685Z,5.20
2022-10-19T20:46:37.862Z,5.03
2022-10-19T20:49:07.430Z,4.82
2022-10-19T20:51:37.165Z,5.25
2022-10-19T20:54:07.535Z,5.35
2022-10-19T20:56:37.054Z,5.00
2022-10-19T20:59:07.352Z,5.53
2022-10-19T21:01:38.615Z,5.45
2022-10-19T21:06:39.582Z,6.20
2022-10-19T21:09:08.720Z,6.28
2022-10-19T21:11:38.534Z,5.88
2022-10-19T21:14:09.762Z,5.53
2022-10-19T21:16:39.669Z,5.88
2022-10-19T21:19:09.604Z,5.80
2022-10-19T21:21:41.625Z,6.03
2022-10-19T21:24:12.809Z,6.03
2022-10-19T21:26:41.122Z,6.28
2022-10-19T21:29:10.700Z,5.57
2022-10-19T21:31:47.830Z,5.88
2022-10-19T21:34:21.430Z,6.30
2022-10-19T21:36:49.747Z,5.38
2022-10-19T21:39:18.757Z,5.40
2022-10-19T21:41:47.377Z,5.47
2022-10-19T21:44:16.474Z,5.95
2022-10-19T21:46:48.227Z,5.85
2022-10-19T21:49:16.589Z,6.60
2022-10-19T21:51:45.935Z,6.15
2022-10-19T21:54:15.637Z,6.28
2022-10-19T21:56:43.893Z,6.15
2022-10-19T21:59:13.142Z,6.35
2022-10-19T22:01:41.909Z,5.82
2022-10-19T22:04:14.162Z,6.30
2022-10-19T22:06:42.710Z,7.25
2022-10-19T22:09:14.645Z,7.05
2022-10-19T22:11:42.945Z,6.82
2022-10-19T22:14:13.308Z,6.22
2022-10-19T22:16:41.961Z,6.03
2022-10-19T22:19:12.004Z,5.88
2022-10-19T22:21:40.355Z,6.88
2022-10-19T22:24:11.635Z,7.28
2022-10-19T22:26:42.024Z,7.00
2022-10-19T22:29:10.563Z,7.53
2022-10-19T22:31:39.464Z,7.18
2022-10-19T22:34:09.589Z,7.28
2022-10-19T22:36:39.310Z,7.18
2022-10-19T22:39:08.404Z,7.18
2022-10-19T22:42:31.789Z,8.10
2022-10-19T22:45:00.485Z,8.20
2022-10-19T22:47:28.662Z,7.45
2022-10-19T22:49:57.189Z,7.70
2022-10-19T22:52:26.843Z,8.65
2022-10-19T22:54:55.419Z,6.63
2022-10-19T22:57:23.804Z,6.97
2022-10-19T22:59:52.179Z,7.32
2022-10-19T23:02:20.391Z,7.75
2022-10-19T23:04:48.862Z,7.28
2022-10-19T23:07:17.075Z,7.40
2022-10-19T23:09:46.888Z,8.60
2022-10-19T23:12:15.027Z,7.75
2022-10-19T23:14:43.626Z,7.88
2022-10-19T23:17:11.911Z,7.05
2022-10-19T23:19:40.346Z,6.63
2022-10-19T23:22:08.424Z,6.15
2022-10-19T23:24:36.807Z,7.15
2022-10-19T23:27:06.386Z,7.38
2022-10-19T23:29:34.919Z,7.22
2022-10-19T23:32:03.061Z,6.80
2022-10-19T23:34:31.412Z,7.97
2022-10-19T23:36:59.649Z,7.93
2022-10-19T23:39:28.029Z,7.72
2022-10-19T23:41:56.133Z,7.68
2022-10-19T23:44:25.899Z,7.60
2022-10-19T23:46:54.274Z,7.85
2022-10-19T23:49:22.529Z,6.82
2022-10-19T23:51:50.671Z,7.47
2022-10-19T23:54:18.970Z,6.93
2022-10-19T23:56:47.019Z,7.47
2022-10-19T23:59:15.536Z,7.30
